Time;durP1;ratioP1;P1;durP2;ratioP2;P2;SDS_P1;SDS_P2;PMS_P1;PMS_P2;Temp;Humidity;BMP_temperature;BMP_pressure;BME280_temperature;BME280_humidity;BME280_pressure;Samples;Min_cycle;Max_cycle;Signal;HPM_P1;HPM_P2
2022/04/25 00:02:23;;;;;;;25.65;4.50;;;;;;;17.10;70.58;93800.25;5033356;28;20210;-60
2022/04/25 00:04:49;;;;;;;22.02;4.78;;;;;;;17.08;70.94;93789.38;5032034;28;20648;-61
2022/04/25 00:07:14;;;;;;;20.67;4.43;;;;;;;17.19;72.65;93768.28;5033536;28;20206;-61
2022/04/25 00:09:40;;;;;;;22.42;5.10;;;;;;;17.15;71.37;93785.06;5033921;28;20191;-62
2022/04/25 00:12:06;;;;;;;24.17;5.28;;;;;;;17.33;73.61;93757.84;5032220;28;20747;-63
2022/04/25 00:14:31;;;;;;;26.38;5.28;;;;;;;17.34;72.18;93789.47;5031977;28;20186;-62
2022/04/25 00:16:57;;;;;;;25.30;5.30;;;;;;;17.11;72.32;93776.94;5032473;28;20252;-64
2022/04/25 00:19:23;;;;;;;16.65;5.05;;;;;;;16.64;74.42;93754.56;5015004;28;20222;-64
2022/04/25 00:21:55;;;;;;;15.80;5.15;;;;;;;16.57;75.82;93748.59;5033167;28;20629;-62
2022/04/25 00:24:21;;;;;;;20.38;5.70;;;;;;;16.25;79.20;93743.22;5033225;28;20661;-62
2022/04/25 00:26:47;;;;;;;19.98;6.47;;;;;;;16.03;81.58;93757.03;5032932;28;20692;-59
2022/04/25 00:29:12;;;;;;;16.05;5.50;;;;;;;16.27;80.95;93756.66;5031667;28;20586;-60
2022/04/25 00:31:41;;;;;;;15.90;5.53;;;;;;;16.46;80.28;93764.47;5032971;28;20289;-60
2022/04/25 00:34:07;;;;;;;15.02;5.07;;;;;;;16.45;80.21;93765.47;5033092;28;20190;-60
2022/04/25 00:36:32;;;;;;;15.52;5.22;;;;;;;16.57;81.13;93766.56;5031478;28;20691;-62
2022/04/25 00:38:58;;;;;;;23.15;6.60;;;;;;;16.55;80.27;93776.22;5031815;28;20675;-63
2022/04/25 00:41:23;;;;;;;21.67;6.50;;;;;;;16.20;81.61;93768.63;5030885;28;20261;-62
2022/04/25 00:43:54;;;;;;;10.48;5.35;;;;;;;16.57;80.84;93783.72;5033111;28;20218;-61
2022/04/25 00:46:21;;;;;;;19.60;5.90;;;;;;;16.52;80.56;93780.94;5032581;28;20186;-60
2022/04/25 00:48:47;;;;;;;11.48;5.43;;;;;;;16.28;81.85;93771.84;5031455;28;20226;-60
2022/04/25 00:51:14;;;;;;;15.45;5.72;;;;;;;16.38;82.40;93774.09;5030398;28;20179;-60
2022/04/25 00:53:40;;;;;;;18.42;5.25;;;;;;;16.54;81.91;93779.75;5032712;28;20613;-64
2022/04/25 00:56:08;;;;;;;18.02;5.22;;;;;;;16.83;78.95;93799.28;5039442;23;20253;-61
2022/04/25 00:58:34;;;;;;;13.13;5.38;;;;;;;16.67;80.12;93786.75;5032482;28;20539;-62
2022/04/25 01:00:59;;;;;;;13.65;5.45;;;;;;;16.41;81.92;93763.47;5032946;28;20244;-63
2022/04/25 01:03:25;;;;;;;31.48;6.65;;;;;;;16.35;83.09;93765.00;5032321;28;20198;-60
2022/04/25 01:05:50;;;;;;;14.18;5.57;;;;;;;16.45;81.53;93767.22;5041875;23;20197;-61
2022/04/25 01:08:16;;;;;;;16.08;5.38;;;;;;;16.53;81.21;93774.81;5030646;28;20230;-61
2022/04/25 01:10:43;;;;;;;15.95;5.82;;;;;;;16.48;82.99;93754.81;5032388;28;20181;-61
2022/04/25 01:13:13;;;;;;;22.48;6.38;;;;;;;16.47;82.66;93763.50;5031919;28;20190;-61
2022/04/25 01:15:42;;;;;;;18.85;6.50;;;;;;;16.21;84.24;93753.06;5032075;28;20204;-64
2022/04/25 01:18:08;;;;;;;17.40;5.82;;;;;;;16.37;84.39;93751.97;5031319;28;20194;-60
2022/04/25 01:20:33;;;;;;;11.27;5.50;;;;;;;16.22;84.37;93738.47;5031825;28;20189;-61
2022/04/25 01:27:15;;;;;;;21.88;6.35;;;;;;;16.17;85.07;93740.78;5039476;23;20770;-62
2022/04/25 01:28:28;;;;;;;23.05;6.20;;;;;;;15.89;87.28;93731.31;5032192;28;20727;-60
2022/04/25 01:30:53;;;;;;;13.05;5.40;;;;;;;15.90;86.98;93726.97;5032232;28;20207;-61
2022/04/25 01:33:18;;;;;;;19.25;6.10;;;;;;;15.83;87.98;93715.88;5032327;28;20206;-61
2022/04/25 01:35:44;;;;;;;12.57;5.68;;;;;;;15.92;85.88;93730.13;5031875;28;20174;-62
2022/04/25 01:38:10;;;;;;;17.25;6.20;;;;;;;15.89;87.06;93712.56;5032222;28;20271;-61
2022/04/25 01:40:35;;;;;;;18.15;4.95;;;;;;;15.96;81.14;93774.94;5014191;28;20621;-62
2022/04/25 01:43:02;;;;;;;18.92;4.45;;;;;;;15.89;79.16;93774.88;5032136;28;20210;-63
2022/04/25 01:45:28;;;;;;;13.90;4.57;;;;;;;15.51;83.52;93714.59;5031889;28;20182;-61
2022/04/25 01:47:53;;;;;;;17.02;4.93;;;;;;;15.46;82.43;93724.59;5030942;28;20217;-62
2022/04/25 01:50:19;;;;;;;23.13;5.03;;;;;;;15.65;81.64;93730.88;5032009;28;20170;-62
2022/04/25 01:52:45;;;;;;;14.00;3.75;;;;;;;15.56;81.66;93734.53;5033763;28;20210;-63
2022/04/25 01:55:11;;;;;;;19.10;4.28;;;;;;;15.55;80.42;93738.88;5036625;28;20636;-61
2022/04/25 01:57:36;;;;;;;18.45;5.18;;;;;;;15.40;80.93;93738.09;5036181;28;20197;-62
2022/04/25 02:00:03;;;;;;;20.23;5.35;;;;;;;15.44;82.05;93730.88;5034613;28;20316;-64
2022/04/25 02:02:28;;;;;;;21.17;5.20;;;;;;;15.65;81.37;93736.81;5036273;28;20332;-61
2022/04/25 02:04:54;;;;;;;15.30;4.05;;;;;;;15.78;80.02;93751.50;5035842;28;20178;-60
2022/04/25 02:07:20;;;;;;;14.25;4.45;;;;;;;15.95;79.41;93763.09;5036089;28;20205;-62
2022/04/25 02:09:46;;;;;;;14.77;4.63;;;;;;;15.89;79.49;93753.59;5036444;28;20251;-66
2022/04/25 02:12:12;;;;;;;11.77;4.50;;;;;;;15.77;79.79;93742.25;5034412;28;20681;-64
2022/04/25 02:14:40;;;;;;;14.55;4.40;;;;;;;15.62;80.38;93728.69;5035582;28;20201;-63
2022/04/25 02:17:05;;;;;;;17.08;4.93;;;;;;;15.54;81.23;93718.56;5033669;28;20206;-60
2022/04/25 02:19:35;;;;;;;17.70;4.75;;;;;;;15.19;82.92;93704.00;5034127;28;20192;-61
2022/04/25 02:22:01;;;;;;;21.15;5.40;;;;;;;15.25;83.98;93701.47;5035329;28;20640;-61
2022/04/25 02:24:26;;;;;;;15.45;4.43;;;;;;;15.56;81.90;93719.16;5035498;28;20229;-61
2022/04/25 02:26:52;;;;;;;24.95;6.15;;;;;;;15.42;82.72;93709.72;5035247;28;20190;-64
2022/04/25 02:29:20;;;;;;;14.32;4.82;;;;;;;15.53;82.77;93717.78;5033982;28;20214;-60
2022/04/25 02:31:46;;;;;;;20.33;5.55;;;;;;;15.64;82.46;93724.97;5035546;28;20206;-61
2022/04/25 02:34:11;;;;;;;20.27;5.47;;;;;;;15.54;82.35;93726.22;5035604;28;20182;-61
2022/04/25 02:36:37;;;;;;;15.10;4.38;;;;;;;15.07;85.05;93691.66;5035374;28;20207;-63
2022/04/25 02:39:03;;;;;;;22.85;5.30;;;;;;;14.99;85.69;93693.50;5035466;28;20269;-61
2022/04/25 02:41:29;;;;;;;22.88;4.78;;;;;;;15.33;84.64;93711.59;5035289;28;20243;-60
2022/04/25 02:43:54;;;;;;;15.63;5.03;;;;;;;15.68;82.72;93728.75;5035125;28;20178;-63
2022/04/25 02:46:20;;;;;;;21.00;5.03;;;;;;;15.63;82.67;93723.41;5034873;28;20517;-65
2022/04/25 02:48:46;;;;;;;22.00;4.78;;;;;;;15.22;83.85;93716.41;5034738;28;20210;-61
2022/04/25 02:51:14;;;;;;;15.60;4.68;;;;;;;15.16;84.99;93705.13;5033283;28;20228;-62
2022/04/25 02:53:40;;;;;;;17.45;5.70;;;;;;;15.28;84.29;93713.13;5033650;28;20210;-62
2022/04/25 02:56:07;;;;;;;17.52;5.50;;;;;;;15.32;84.26;93702.34;5034797;28;20220;-63
2022/04/25 02:58:34;;;;;;;15.43;4.88;;;;;;;15.70;83.06;93713.19;5033372;28;20352;-61
2022/04/25 03:01:00;;;;;;;13.85;4.95;;;;;;;15.58;83.16;93704.41;5034763;28;20710;-64
2022/04/25 03:03:26;;;;;;;25.45;5.80;;;;;;;15.25;85.33;93664.84;5034425;28;20719;-65
2022/04/25 03:05:53;;;;;;;16.48;5.10;;;;;;;15.32;84.99;93673.38;5040762;23;20234;-65
2022/04/25 03:08:20;;;;;;;14.15;4.47;;;;;;;15.17;85.18;93664.97;5034540;28;20206;-66
2022/04/25 03:10:47;;;;;;;16.40;4.93;;;;;;;15.00;87.17;93659.28;5034810;28;20193;-65
2022/04/25 03:13:14;;;;;;;22.42;6.00;;;;;;;14.66;87.64;93667.56;5034398;28;20190;-65
2022/04/25 03:15:40;;;;;;;20.33;5.35;;;;;;;14.81;87.10;93680.31;5034468;28;20182;-61
2022/04/25 03:18:13;;;;;;;14.18;5.35;;;;;;;15.04;87.18;93678.41;5034463;28;20194;-65
2022/04/25 03:20:44;;;;;;;25.60;5.07;;;;;;;15.37;84.28;93702.59;5041702;23;20436;-62
2022/04/25 03:23:09;;;;;;;15.07;4.57;;;;;;;15.40;80.01;93744.97;5034177;28;20194;-65
2022/04/25 03:25:36;;;;;;;18.58;5.20;;;;;;;15.37;81.33;93723.06;5034115;28;20174;-64
2022/04/25 03:28:02;;;;;;;22.42;5.47;;;;;;;15.03;82.22;93699.84;5032734;28;20291;-63
2022/04/25 03:30:28;;;;;;;13.55;4.97;;;;;;;15.03;83.97;93698.09;5039866;23;20287;-61
2022/04/25 03:32:55;;;;;;;15.50;5.18;;;;;;;14.82;83.67;93700.63;5041277;23;20253;-62
2022/04/25 03:35:23;;;;;;;11.07;4.53;;;;;;;15.19;83.09;93714.22;5034376;28;20183;-60
2022/04/25 03:37:51;;;;;;;19.70;4.88;;;;;;;15.03;82.94;93720.34;5033658;28;20632;-61
2022/04/25 03:40:17;;;;;;;15.23;4.47;;;;;;;15.03;81.70;93736.50;5034316;28;20182;-61
2022/04/25 03:42:46;;;;;;;21.67;5.28;;;;;;;15.15;80.03;93747.84;5032684;28;20269;-60
2022/04/25 03:45:18;;;;;;;14.48;3.75;;;;;;;15.18;78.15;93774.06;5034152;28;20175;-61
2022/04/25 03:47:46;;;;;;;13.10;4.60;;;;;;;14.91;79.84;93758.41;5034109;28;20260;-63
2022/04/25 03:50:13;;;;;;;21.95;5.80;;;;;;;14.41;86.12;93681.59;5033793;28;20194;-61
2022/04/25 03:52:41;;;;;;;16.08;4.55;;;;;;;14.39;87.97;93706.53;5032551;28;20281;-62
2022/04/25 03:57:53;;;;;;;18.23;5.55;;;;;;;14.24;90.93;93696.28;5034305;28;20248;-61
2022/04/25 04:00:19;;;;;;;13.02;5.32;;;;;;;14.70;89.14;93716.59;5033641;28;20178;-60
2022/04/25 04:02:51;;;;;;;18.05;7.40;;;;;;;14.27;91.06;93707.91;5032370;28;20217;-64
2022/04/25 04:05:17;;;;;;;19.45;5.88;;;;;;;14.46;91.33;93702.31;5033264;28;20190;-64
2022/04/25 04:07:44;;;;;;;17.38;5.20;;;;;;;14.47;92.62;93718.44;5033863;28;20213;-62
2022/04/25 04:10:10;;;;;;;16.05;5.47;;;;;;;14.23;92.94;93722.81;5033570;28;20190;-63
2022/04/25 04:12:35;;;;;;;15.00;5.70;;;;;;;14.68;90.87;93728.78;5033729;28;20204;-62
2022/04/25 04:15:03;;;;;;;22.80;5.85;;;;;;;14.70;91.19;93735.31;5032923;28;20739;-62
2022/04/25 04:17:29;;;;;;;19.30;6.00;;;;;;;14.03;95.79;93731.16;5032263;28;20586;-61
2022/04/25 04:19:54;;;;;;;20.42;6.30;;;;;;;13.99;96.71;93732.47;5031856;28;20182;-65
2022/04/25 04:22:29;;;;;;;17.02;6.10;;;;;;;14.27;96.13;93738.59;5032506;28;20213;-62
2022/04/25 04:25:02;;;;;;;22.08;5.68;;;;;;;14.71;93.41;93739.44;5035610;28;20170;-63
2022/04/25 04:27:31;;;;;;;14.10;6.35;;;;;;;14.76;93.06;93738.91;5031708;28;20595;-63
2022/04/25 04:30:00;;;;;;;19.58;6.50;;;;;;;14.10;97.31;93730.28;5033053;28;20186;-60
2022/04/25 04:32:29;;;;;;;15.90;6.15;;;;;;;13.92;99.26;93742.56;5031710;28;20232;-66
2022/04/25 04:34:59;;;;;;;23.17;7.43;;;;;;;14.14;96.41;93740.94;5032878;28;20182;-63
2022/04/25 04:37:25;;;;;;;19.07;6.63;;;;;;;14.09;96.51;93726.16;5033261;28;20579;-62
2022/04/25 04:40:28;;;;;;;22.13;6.57;;;;;;;14.33;95.14;93743.03;5032864;28;20655;-63
2022/04/25 04:42:41;;;;;;;15.90;6.50;;;;;;;14.09;97.64;93738.13;5033078;28;20345;-61
2022/04/25 04:45:07;;;;;;;15.40;6.35;;;;;;;14.42;96.15;93736.09;5031498;28;20215;-63
2022/04/25 04:47:38;;;;;;;25.30;7.25;;;;;;;14.32;95.78;93741.47;5037939;23;20242;-62
2022/04/25 04:50:05;;;;;;;20.70;6.50;;;;;;;14.53;94.23;93756.91;5032959;28;20636;-63
2022/04/25 04:52:31;;;;;;;16.30;6.63;;;;;;;14.43;94.84;93751.25;5033128;28;20245;-61
2022/04/25 04:54:56;;;;;;;22.65;6.88;;;;;;;14.06;97.35;93744.38;5032417;28;20759;-65
2022/04/25 04:57:21;;;;;;;16.13;6.32;;;;;;;13.94;98.47;93752.59;5031509;28;20198;-64
2022/04/25 04:59:47;;;;;;;21.97;7.17;;;;;;;13.87;98.65;93764.50;5032608;28;20258;-60
2022/04/25 05:02:16;;;;;;;22.05;7.22;;;;;;;13.85;99.77;93759.56;5032604;28;20209;-64
2022/04/25 05:04:46;;;;;;;25.88;7.68;;;;;;;13.95;100.00;93749.09;5032531;28;20171;-62
2022/04/25 05:07:11;;;;;;;23.65;7.70;;;;;;;14.29;99.29;93757.13;5032567;28;20202;-63
2022/04/25 05:09:37;;;;;;;20.90;6.70;;;;;;;14.53;97.21;93767.13;5032333;28;20591;-65
2022/04/25 05:12:02;;;;;;;18.20;6.95;;;;;;;14.36;96.01;93770.81;5031258;28;20206;-61
2022/04/25 05:14:28;;;;;;;19.80;6.55;;;;;;;14.33;97.13;93763.50;5030875;28;20178;-61
2022/04/25 05:16:53;;;;;;;16.45;6.97;;;;;;;14.59;96.74;93778.41;5032373;28;20202;-65
2022/04/25 05:19:20;;;;;;;13.40;6.40;;;;;;;14.59;95.67;93804.78;5032137;28;20174;-64
2022/04/25 05:21:46;;;;;;;20.20;6.95;;;;;;;14.52;95.87;93798.00;5032387;28;20320;-60
2022/04/25 05:24:11;;;;;;;23.73;7.13;;;;;;;14.77;95.00;93817.25;5031221;28;20175;-63
2022/04/25 05:26:37;;;;;;;21.60;6.90;;;;;;;14.72;95.03;93822.91;5032159;28;20206;-63
2022/04/25 05:29:02;;;;;;;19.65;6.60;;;;;;;14.57;93.90;93800.81;5030478;28;20209;-61
2022/04/25 05:31:28;;;;;;;22.50;7.78;;;;;;;14.57;93.99;93806.72;5032166;28;20324;-62
2022/04/25 05:33:53;;;;;;;18.55;6.32;;;;;;;14.87;92.14;93828.81;5032045;28;20174;-62
2022/04/25 05:36:19;;;;;;;20.95;6.35;;;;;;;14.79;90.80;93823.78;5032107;28;20178;-64
2022/04/25 05:38:44;;;;;;;25.08;7.78;;;;;;;14.68;92.02;93816.56;5032246;28;20189;-64
2022/04/25 05:41:10;;;;;;;27.30;7.53;;;;;;;14.96;89.92;93847.44;5031830;28;20178;-61
2022/04/25 05:43:40;;;;;;;21.38;6.75;;;;;;;14.78;89.83;93836.75;5029799;28;20599;-63
2022/04/25 05:46:06;;;;;;;15.65;5.82;;;;;;;15.04;89.81;93829.44;5029857;28;20194;-64
2022/04/25 05:54:00;;;;;;;25.52;6.78;;;;;;;15.25;88.80;93829.50;5032189;28;20271;-61
2022/04/25 05:56:26;;;;;;;25.52;6.57;;;;;;;15.35;87.81;93842.06;5031955;28;20217;-63
2022/04/25 05:58:52;;;;;;;18.08;7.05;;;;;;;15.59;86.92;93855.41;5032026;28;20217;-63
2022/04/25 06:01:17;;;;;;;21.73;6.75;;;;;;;15.55;86.11;93868.72;5030256;28;20194;-60
2022/04/25 06:03:43;;;;;;;14.95;5.70;;;;;;;15.51;86.25;93855.50;5030518;28;20174;-63
2022/04/25 06:06:09;;;;;;;15.55;5.95;;;;;;;15.57;84.63;93862.47;5029796;28;20174;-60
2022/04/25 06:08:34;;;;;;;30.73;9.15;;;;;;;15.62;84.38;93874.72;5031085;28;20217;-61
2022/04/25 06:10:59;;;;;;;22.88;5.55;;;;;;;15.72;83.61;93882.91;5032137;28;20197;-67
2022/04/25 06:13:25;;;;;;;20.45;6.35;;;;;;;15.91;81.67;93897.75;5031817;28;20196;-61
2022/04/25 06:15:52;;;;;;;16.25;5.18;;;;;;;15.94;93.60;93777.69;5037695;23;20333;-60
2022/04/25 06:18:17;;;;;;;24.80;6.03;;;;;;;16.46;84.24;93903.00;5031843;28;20564;-63
2022/04/25 06:20:43;;;;;;;25.95;5.97;;;;;;;16.39;80.60;93894.47;5031612;28;20236;-62
2022/04/25 06:23:08;;;;;;;23.38;6.32;;;;;;;16.50;86.15;93841.91;5031479;28;20202;-61
2022/04/25 06:25:36;;;;;;;16.17;5.45;;;;;;;16.95;100.00;93766.22;5031460;28;20568;-62
2022/04/25 06:28:02;;;;;;;21.35;5.65;;;;;;;17.86;100.00;93787.09;5031700;28;20225;-62
2022/04/25 06:30:29;;;;;;;15.85;5.25;;;;;;;17.90;79.92;93972.66;5030249;28;20231;-62
2022/04/25 06:32:57;;;;;;;21.88;6.53;;;;;;;17.88;79.42;93912.91;5031427;28;20566;-66
2022/04/25 06:35:23;;;;;;;19.70;5.70;;;;;;;18.00;75.06;93963.59;5030111;28;20183;-64
2022/04/25 06:37:49;;;;;;;25.08;6.30;;;;;;;17.78;80.13;93877.25;5031416;28;20264;-61
2022/04/25 06:40:14;;;;;;;23.13;6.35;;;;;;;17.18;78.21;93892.56;5040224;23;20309;-62
2022/04/25 06:42:40;;;;;;;23.15;6.28;;;;;;;17.10;78.83;93867.00;5034921;28;20237;-63
2022/04/25 06:45:09;;;;;;;22.35;7.30;;;;;;;16.88;80.43;93840.63;5035063;28;20637;-63
2022/04/25 06:47:34;;;;;;;27.73;6.18;;;;;;;16.74;81.66;93837.19;5034712;28;20692;-64
2022/04/25 06:50:00;;;;;;;18.55;5.43;;;;;;;16.96;79.71;93873.06;5056358;23;20260;-62
2022/04/25 06:52:26;;;;;;;23.40;5.70;;;;;;;16.96;78.89;93883.31;5035054;28;20213;-60
2022/04/25 06:54:51;;;;;;;22.45;4.97;;;;;;;16.94;79.55;93880.16;5033578;28;20273;-60
2022/04/25 06:57:17;;;;;;;16.27;5.25;;;;;;;16.90;80.60;93864.31;5034375;28;20236;-63
2022/04/25 06:59:44;;;;;;;22.60;6.05;;;;;;;17.35;80.15;93865.59;5034850;28;20252;-65
2022/04/25 07:02:10;;;;;;;21.17;5.88;;;;;;;17.16;80.65;93853.41;5034601;28;20209;-60
2022/04/25 07:04:37;;;;;;;23.20;5.75;;;;;;;17.25;81.26;93850.50;5034698;28;20170;-61
2022/04/25 07:07:03;;;;;;;19.67;5.70;;;;;;;17.45;78.42;93892.50;5034436;28;20194;-63
2022/04/25 07:09:28;;;;;;;18.02;5.63;;;;;;;17.53;79.74;93865.91;5034510;28;20206;-61
2022/04/25 07:11:54;;;;;;;18.30;5.65;;;;;;;17.38;79.30;93865.19;5034351;28;20224;-61
2022/04/25 07:14:21;;;;;;;23.65;6.00;;;;;;;17.53;78.45;93882.09;5034912;28;20236;-64
2022/04/25 07:16:48;;;;;;;21.77;4.97;;;;;;;17.75;76.45;93905.94;5034560;28;20579;-60
2022/04/25 07:19:16;;;;;;;24.15;4.90;;;;;;;17.85;78.19;93877.28;5034864;28;20186;-66
2022/04/25 07:29:54;;;;;;;23.27;4.90;;;;;;;18.20;73.65;93933.59;5034404;28;20654;-61
2022/04/25 07:32:20;;;;;;;19.98;4.45;;;;;;;18.38;72.48;93938.22;5034679;28;20656;-61
2022/04/25 07:34:47;;;;;;;23.52;5.90;;;;;;;18.53;72.33;93925.19;5032640;28;20185;-61
2022/04/25 07:37:15;;;;;;;17.67;4.72;;;;;;;18.60;72.10;93936.31;5033873;28;20202;-64
2022/04/25 07:39:40;;;;;;;21.92;4.53;;;;;;;18.56;69.49;93971.16;5032430;28;20758;-66
2022/04/25 07:42:06;;;;;;;17.23;4.53;;;;;;;18.59;70.26;93943.22;5034099;28;20226;-65
2022/04/25 07:44:31;;;;;;;15.68;4.75;;;;;;;18.49;73.32;93890.53;5033733;28;20185;-62
2022/04/25 07:46:58;;;;;;;21.10;4.80;;;;;;;18.35;72.78;93905.94;5034073;28;20549;-64
2022/04/25 07:49:23;;;;;;;20.67;5.63;;;;;;;18.39;73.68;93890.88;5033870;28;20210;-63
2022/04/25 07:51:49;;;;;;;17.02;4.57;;;;;;;18.74;70.86;93940.47;5033411;28;20194;-63
2022/04/25 07:54:15;;;;;;;26.58;6.43;;;;;;;18.74;70.90;93935.34;5034197;28;20190;-63
2022/04/25 07:56:42;;;;;;;20.75;4.95;;;;;;;18.83;69.06;93955.53;5033470;28;20244;-62
2022/04/25 07:59:09;;;;;;;22.65;5.15;;;;;;;18.68;70.07;93930.97;5033974;28;20281;-63
2022/04/25 08:01:35;;;;;;;22.35;7.70;;;;;;;18.72;71.08;93906.41;5033342;28;20206;-63
2022/04/25 08:04:01;;;;;;;23.23;5.40;;;;;;;18.78;71.00;93903.03;5032807;28;20194;-63
2022/04/25 08:06:27;;;;;;;26.35;4.93;;;;;;;18.93;69.25;93935.34;5030060;28;20569;-62
2022/04/25 08:09:11;;;;;;;19.83;4.22;;;;;;;18.94;68.27;93947.22;5033073;28;20331;-63
2022/04/25 08:19:49;;;;;;;30.80;5.18;;;;;;;19.17;53.83;94109.16;5033610;28;20240;-65
2022/04/25 08:22:14;;;;;;;20.08;3.95;;;;;;;19.22;51.39;94135.97;5031798;28;20202;-63
2022/04/25 08:24:40;;;;;;;27.73;4.35;;;;;;;19.24;52.23;94100.47;5032964;28;20180;-63
2022/04/25 08:27:05;;;;;;;29.50;4.88;;;;;;;19.45;50.19;94140.81;5032758;28;20195;-63
2022/04/25 08:29:32;;;;;;;23.65;3.85;;;;;;;19.62;43.28;94092.19;5032806;28;20201;-65
2022/04/25 08:31:58;;;;;;;29.00;4.50;;;;;;;19.76;42.11;94061.06;5032721;28;20201;-64
2022/04/25 08:34:24;;;;;;;25.67;4.80;;;;;;;19.86;44.50;93999.53;5032925;28;20240;-65
2022/04/25 08:36:51;;;;;;;31.00;5.32;;;;;;;19.97;42.71;94031.66;5032790;28;20199;-65
2022/04/25 08:39:17;;;;;;;24.17;4.07;;;;;;;20.23;41.11;94051.47;5048621;28;20225;-63
2022/04/25 08:41:46;;;;;;;24.40;5.80;;;;;;;20.35;40.20;94055.00;5032891;28;20202;-64
2022/04/25 08:44:17;;;;;;;16.60;3.88;;;;;;;20.45;40.44;94042.44;5015311;28;20273;-66
2022/04/25 08:46:48;;;;;;;23.40;4.18;;;;;;;20.42;39.80;94046.22;5033059;28;20202;-67
2022/04/25 08:49:14;;;;;;;29.35;4.97;;;;;;;20.58;39.84;94032.84;5033075;28;20701;-66
2022/04/25 08:51:41;;;;;;;28.42;4.55;;;;;;;20.84;39.09;94039.69;5032823;28;20259;-65
2022/04/25 08:54:08;;;;;;;27.25;4.05;;;;;;;20.87;37.46;94081.41;5033066;28;20197;-63
2022/04/25 08:56:38;;;;;;;18.55;4.18;;;;;;;20.90;37.38;94057.75;5032368;28;20644;-63
2022/04/25 08:59:05;;;;;;;27.40;4.45;;;;;;;20.99;38.05;94052.34;5032285;28;20186;-61
2022/04/25 09:01:32;;;;;;;20.40;4.88;;;;;;;21.13;35.36;94095.25;5030479;28;20689;-62
2022/04/25 09:03:59;;;;;;;23.00;4.82;;;;;;;21.14;36.70;94068.38;5032108;28;20229;-63
2022/04/25 09:06:24;;;;;;;20.42;3.70;;;;;;;21.35;35.04;94099.88;5032525;28;20185;-64
2022/04/25 09:08:49;;;;;;;16.23;3.47;;;;;;;21.51;34.55;94096.75;5030530;28;20214;-64
2022/04/25 09:14:00;;;;;;;18.58;3.83;;;;;;;21.57;35.12;94051.94;5030320;28;20565;-63
2022/04/25 09:16:26;;;;;;;23.13;4.63;;;;;;;21.84;34.59;94062.91;5032088;28;20328;-65
2022/04/25 09:18:51;;;;;;;20.90;3.65;;;;;;;21.93;34.88;94055.66;5031185;28;20248;-63
2022/04/25 09:21:18;;;;;;;23.92;4.05;;;;;;;22.17;35.33;94036.69;5032289;28;20550;-64
2022/04/25 09:23:43;;;;;;;23.95;3.63;;;;;;;22.49;34.47;94048.50;5032561;28;20214;-63
2022/04/25 09:26:15;;;;;;;21.25;4.03;;;;;;;22.44;33.61;94069.09;5030977;28;20271;-66
2022/04/25 09:28:52;;;;;;;31.15;4.20;;;;;;;22.73;34.45;94052.81;5047406;28;20268;-64
2022/04/25 09:31:18;;;;;;;18.20;3.05;;;;;;;22.54;33.19;94071.97;5032113;28;20173;-62
2022/04/25 09:33:45;;;;;;;22.08;3.67;;;;;;;22.60;33.61;94047.00;5031067;28;20186;-63
2022/04/25 09:36:11;;;;;;;28.23;4.05;;;;;;;22.78;33.79;94050.38;5032247;28;20190;-65
2022/04/25 09:38:39;;;;;;;13.25;3.58;;;;;;;23.11;31.95;94100.00;5032369;28;20194;-63
2022/04/25 09:41:07;;;;;;;22.70;3.55;;;;;;;23.27;33.34;94050.06;5031985;28;20262;-63
2022/04/25 09:43:34;;;;;;;18.52;3.40;;;;;;;23.49;33.72;94027.03;5032184;28;20671;-64
2022/04/25 09:46:14;;;;;;;21.67;3.45;;;;;;;23.85;32.88;94046.81;5030808;28;20191;-65
2022/04/25 09:48:43;;;;;;;23.52;3.17;;;;;;;23.91;32.70;94044.13;5031861;28;20213;-64
2022/04/25 09:51:16;;;;;;;22.23;3.40;;;;;;;23.73;31.50;94067.59;5031573;28;20182;-65
2022/04/25 09:53:44;;;;;;;16.88;3.88;;;;;;;23.78;31.97;94051.31;5032123;28;20201;-64
2022/04/25 09:56:18;;;;;;;17.88;3.45;;;;;;;23.55;32.29;94040.94;5031532;28;20217;-62
2022/04/25 09:58:58;;;;;;;17.60;3.53;;;;;;;23.40;30.97;94058.72;5030599;28;20186;-63
2022/04/25 10:01:23;;;;;;;18.38;3.13;;;;;;;23.68;32.45;94012.16;5029507;28;20170;-63
2022/04/25 10:03:48;;;;;;;11.73;3.33;;;;;;;23.44;30.62;94076.22;5031617;28;20706;-63
2022/04/25 10:06:14;;;;;;;17.70;3.53;;;;;;;23.60;30.54;94052.22;5047034;28;20174;-63
2022/04/25 10:08:41;;;;;;;12.55;2.35;;;;;;;23.96;28.93;94080.56;5032061;28;20234;-64
2022/04/25 10:11:07;;;;;;;17.58;3.40;;;;;;;24.30;29.77;94044.47;5031787;28;20178;-63
2022/04/25 10:13:34;;;;;;;16.70;3.58;;;;;;;24.07;29.27;94051.25;5031944;28;20210;-62
2022/04/25 10:16:01;;;;;;;18.17;3.10;;;;;;;24.24;28.70;94055.75;5042068;23;20314;-62
2022/04/25 10:18:30;;;;;;;12.82;3.10;;;;;;;23.96;29.06;94059.00;5054370;28;20205;-62
2022/04/25 10:20:56;;;;;;;27.70;4.15;;;;;;;23.47;30.28;94017.91;5055090;28;20189;-62
2022/04/25 10:23:21;;;;;;;19.40;3.33;;;;;;;23.49;30.69;94008.09;5055198;28;20212;-62
2022/04/25 10:25:52;;;;;;;20.70;3.65;;;;;;;23.60;30.06;94033.25;5054010;28;20261;-62
2022/04/25 10:28:35;;;;;;;20.77;3.15;;;;;;;23.79;29.13;94037.34;5037480;28;20228;-63
2022/04/25 10:31:04;;;;;;;12.95;2.90;;;;;;;24.03;29.30;94028.56;5055126;28;20178;-62
2022/04/25 10:33:54;;;;;;;15.18;3.33;;;;;;;23.84;29.57;94011.47;5055259;28;20288;-65
2022/04/25 10:36:38;;;;;;;24.80;3.47;;;;;;;23.63;30.06;94001.66;5055272;28;20173;-61
2022/04/25 10:39:13;;;;;;;11.95;2.95;;;;;;;23.71;30.16;93994.34;5055162;28;20261;-62
2022/04/25 10:44:25;;;;;;;8.55;2.35;;;;;;;23.87;26.55;94068.97;5043990;23;20292;-63
2022/04/25 10:47:03;;;;;;;16.95;2.38;;;;;;;23.30;26.47;94064.41;5035120;28;20194;-62
2022/04/25 10:49:34;;;;;;;14.68;2.90;;;;;;;23.53;26.95;94054.13;5034798;28;20232;-63
2022/04/25 10:52:00;;;;;;;17.42;3.65;;;;;;;23.18;28.44;94002.16;5035026;28;20205;-65
2022/04/25 10:54:29;;;;;;;16.50;2.60;;;;;;;23.28;29.65;93980.84;5035038;28;20609;-65
2022/04/25 10:57:11;;;;;;;20.90;3.28;;;;;;;23.59;28.92;93995.34;5034693;28;20593;-62
2022/04/25 10:59:40;;;;;;;15.40;3.33;;;;;;;23.93;27.43;94030.91;5033428;28;20190;-62
2022/04/25 11:02:30;;;;;;;15.20;2.45;;;;;;;23.71;28.56;93999.53;5034722;28;20204;-64
2022/04/25 11:05:10;;;;;;;25.48;3.45;;;;;;;23.41;28.44;94008.41;5035154;28;20206;-63
2022/04/25 11:07:40;;;;;;;23.70;3.88;;;;;;;23.38;27.09;94037.38;5033166;28;20225;-63
2022/04/25 11:10:09;;;;;;;12.52;3.08;;;;;;;23.05;27.05;94041.22;5034633;28;20181;-62
2022/04/25 11:12:59;;;;;;;11.68;3.00;;;;;;;23.57;26.75;94037.09;5034911;28;20210;-63
2022/04/25 11:15:52;;;;;;;15.38;3.08;;;;;;;24.20;26.25;94060.59;5034748;28;20221;-62
2022/04/25 11:18:35;;;;;;;16.02;3.65;;;;;;;24.55;25.60;94061.34;5032488;28;20225;-64
2022/04/25 11:21:04;;;;;;;16.20;3.05;;;;;;;24.89;25.05;94059.69;5034504;28;20202;-62
2022/04/25 11:23:51;;;;;;;20.83;3.63;;;;;;;25.19;28.87;93961.34;5034789;28;20198;-66
2022/04/25 11:26:22;;;;;;;17.63;2.78;;;;;;;24.66;25.52;94044.94;5033561;28;20664;-65
2022/04/25 11:28:54;;;;;;;16.33;3.08;;;;;;;24.56;26.07;94033.56;5034884;28;20202;-63
2022/04/25 11:31:23;;;;;;;7.78;3.20;;;;;;;24.36;24.95;94052.09;5034556;28;20186;-62
2022/04/25 11:33:51;;;;;;;13.55;2.50;;;;;;;24.21;25.09;94051.81;5034684;28;20593;-64
2022/04/25 11:36:18;;;;;;;17.67;3.65;;;;;;;23.94;25.52;94041.06;5034170;28;20185;-62
2022/04/25 11:41:32;;;;;;;14.55;3.63;;;;;;;23.53;26.26;94030.78;5034442;28;20224;-64
2022/04/25 11:43:58;;;;;;;25.70;3.28;;;;;;;23.41;25.11;94040.34;5032886;28;20194;-64
2022/04/25 11:46:27;;;;;;;14.40;3.08;;;;;;;23.77;25.59;94031.56;5033061;28;20710;-64
2022/04/25 11:48:54;;;;;;;16.33;3.33;;;;;;;23.90;24.71;94049.50;5034413;28;20551;-63
2022/04/25 11:51:26;;;;;;;8.77;1.83;;;;;;;23.76;24.46;94053.34;5033983;28;20240;-63
2022/04/25 11:53:53;;;;;;;10.77;2.17;;;;;;;23.50;24.47;94043.38;5032537;28;20256;-63
2022/04/25 11:56:21;;;;;;;10.88;2.10;;;;;;;23.27;24.77;94034.50;5033579;28;20197;-62
2022/04/25 11:58:48;;;;;;;12.60;2.33;;;;;;;23.11;24.89;94029.16;5033620;28;20174;-64
2022/04/25 12:01:14;;;;;;;11.60;2.03;;;;;;;23.14;25.06;94028.72;5033642;28;20298;-62
2022/04/25 12:03:40;;;;;;;12.15;2.33;;;;;;;23.19;23.99;94042.63;5033989;28;20258;-61